Time;durP1;ratioP1;P1;durP2;ratioP2;P2;SDS_P1;SDS_P2;PMS_P1;PMS_P2;Temp;Humidity;BMP_temperature;BMP_pressure;BME280_temperature;BME280_humidity;BME280_pressure;Samples;Min_cycle;Max_cycle;Signal;HPM_P1;HPM_P2
2022/03/02 00:01:37;;;;;;;24.70;5.47;;;;;;;;;;5038162;28;20989;-65
2022/03/02 00:04:03;;;;;;;43.87;7.77;;;;;;;;;;5034685;28;20203;-65
2022/03/02 00:06:29;;;;;;;31.87;5.83;;;;;;;;;;5034969;28;20696;-66
2022/03/02 00:08:55;;;;;;;57.83;9.10;;;;;;;;;;5034756;28;20190;-65
2022/03/02 00:11:21;;;;;;;60.27;9.47;;;;;;;;;;5034678;28;20192;-65
2022/03/02 00:13:47;;;;;;;21.30;4.47;;;;;;;;;;5017197;28;20183;-65
2022/03/02 00:16:14;;;;;;;36.43;6.87;;;;;;;;;;5036207;28;20259;-65
2022/03/02 00:18:40;;;;;;;36.67;6.93;;;;;;;;;;5016334;28;20256;-66
2022/03/02 00:21:06;;;;;;;72.43;11.20;;;;;;;;;;5011141;28;20283;-65
2022/03/02 00:23:32;;;;;;;37.07;6.87;;;;;;;;;;5035377;28;21204;-65
2022/03/02 00:25:58;;;;;;;52.77;8.83;;;;;;;;;;5036770;28;20203;-65
2022/03/02 00:28:24;;;;;;;34.13;6.17;;;;;;;;;;5035028;28;20183;-65
2022/03/02 00:30:50;;;;;;;60.97;9.87;;;;;;;;;;5035553;28;20191;-65
2022/03/02 00:33:17;;;;;;;37.90;6.30;;;;;;;;;;5035892;28;20187;-65
2022/03/02 00:35:43;;;;;;;57.43;8.73;;;;;;;;;;5035615;28;20211;-66
2022/03/02 00:38:10;;;;;;;55.43;8.87;;;;;;;;;;5033975;28;20593;-65
2022/03/02 00:40:37;;;;;;;26.47;5.60;;;;;;;;;;5037517;28;20179;-65
2022/03/02 00:43:03;;;;;;;58.60;9.27;;;;;;;;;;5032616;28;22633;-65
2022/03/02 00:45:31;;;;;;;38.73;7.03;;;;;;;;;;5037765;28;20211;-65
2022/03/02 00:47:57;;;;;;;41.03;7.37;;;;;;;;;;5039412;28;21146;-65
2022/03/02 00:50:23;;;;;;;35.37;6.50;;;;;;;;;;5038110;28;20696;-65
2022/03/02 00:52:49;;;;;;;34.77;6.40;;;;;;;;;;5036523;28;20251;-66
2022/03/02 00:55:15;;;;;;;24.53;5.10;;;;;;;;;;5039141;28;20246;-65
2022/03/02 00:57:41;;;;;;;35.17;6.53;;;;;;;;;;5038383;28;20207;-65
2022/03/02 01:00:07;;;;;;;39.67;7.20;;;;;;;;;;5035148;28;20203;-65
2022/03/02 01:02:33;;;;;;;35.27;6.33;;;;;;;;;;5035796;28;20203;-65
2022/03/02 01:04:59;;;;;;;29.57;5.77;;;;;;;;;;5035415;28;20187;-65
2022/03/02 01:07:25;;;;;;;30.53;6.30;;;;;;;;;;5036497;28;20219;-65
2022/03/02 01:09:51;;;;;;;32.13;6.47;;;;;;;;;;5039312;28;20728;-65
2022/03/02 01:12:17;;;;;;;45.40;7.93;;;;;;;;;;5032652;28;20602;-65
2022/03/02 01:14:43;;;;;;;54.53;9.17;;;;;;;;;;5018766;28;20215;-65
2022/03/02 01:17:09;;;;;;;47.50;8.33;;;;;;;;;;5033512;28;20825;-65
2022/03/02 01:19:36;;;;;;;50.03;8.63;;;;;;;;;;5034817;28;20350;-66
2022/03/02 01:22:02;;;;;;;76.23;11.47;;;;;;;;;;5028286;28;21052;-65
2022/03/02 01:24:28;;;;;;;53.37;8.83;;;;;;;;;;5037467;28;20210;-65
2022/03/02 01:26:54;;;;;;;61.03;9.87;;;;;;;;;;5037703;28;20671;-65
2022/03/02 01:29:20;;;;;;;37.97;6.83;;;;;;;;;;5039521;28;20202;-66
2022/03/02 01:31:45;;;;;;;41.33;7.63;;;;;;;;;;5037683;28;20218;-65
2022/03/02 01:34:11;;;;;;;31.30;5.67;;;;;;;;;;5036479;28;20314;-66
2022/03/02 01:36:37;;;;;;;35.53;6.27;;;;;;;;;;5039737;28;20677;-66
2022/03/02 01:39:03;;;;;;;59.07;9.63;;;;;;;;;;5039047;28;20751;-65
2022/03/02 01:41:29;;;;;;;58.07;9.20;;;;;;;;;;5036392;28;20306;-65
2022/03/02 01:43:56;;;;;;;40.07;7.33;;;;;;;;;;5039536;28;20223;-66
2022/03/02 01:46:22;;;;;;;43.37;7.63;;;;;;;;;;5040100;28;20200;-65
2022/03/02 01:48:49;;;;;;;31.33;6.10;;;;;;;;;;5038973;28;20188;-65
2022/03/02 01:51:15;;;;;;;49.27;8.13;;;;;;;;;;5036969;28;20183;-65
2022/03/02 01:53:41;;;;;;;28.07;5.67;;;;;;;;;;5038279;28;20269;-65
2022/03/02 01:56:08;;;;;;;74.40;11.27;;;;;;;;;;5039505;28;20556;-65
2022/03/02 01:58:34;;;;;;;33.20;6.10;;;;;;;;;;5037263;28;20180;-65
2022/03/02 02:01:00;;;;;;;33.23;6.00;;;;;;;;;;5042152;28;20671;-66
2022/03/02 02:03:26;;;;;;;65.10;10.23;;;;;;;;;;5040450;28;20242;-65
2022/03/02 02:05:52;;;;;;;52.90;8.70;;;;;;;;;;5035089;28;20218;-65
2022/03/02 02:08:18;;;;;;;48.23;7.97;;;;;;;;;;5039937;28;20199;-65
2022/03/02 02:10:45;;;;;;;22.83;5.20;;;;;;;;;;5036471;28;20188;-65
2022/03/02 02:13:11;;;;;;;65.53;9.47;;;;;;;;;;5039292;28;20625;-65
2022/03/02 02:15:37;;;;;;;37.87;7.17;;;;;;;;;;5041707;28;20203;-66
2022/03/02 02:18:03;;;;;;;39.50;7.37;;;;;;;;;;5044322;28;20184;-66
2022/03/02 02:20:29;;;;;;;66.70;10.27;;;;;;;;;;5036720;28;20240;-67
2022/03/02 02:22:55;;;;;;;33.37;6.57;;;;;;;;;;5039125;28;20203;-67
2022/03/02 02:25:21;;;;;;;77.57;11.47;;;;;;;;;;5034498;28;20606;-66
2022/03/02 02:27:48;;;;;;;36.30;6.43;;;;;;;;;;5038661;28;20608;-67
2022/03/02 02:30:15;;;;;;;33.83;6.47;;;;;;;;;;5040765;28;20325;-66
2022/03/02 02:32:41;;;;;;;63.73;9.57;;;;;;;;;;5037806;28;20603;-67
2022/03/02 02:35:08;;;;;;;52.10;8.60;;;;;;;;;;5038078;28;20199;-67
2022/03/02 02:37:34;;;;;;;39.33;7.17;;;;;;;;;;5036372;28;20278;-66
2022/03/02 02:40:01;;;;;;;36.37;6.90;;;;;;;;;;5034324;28;20276;-66
2022/03/02 02:42:28;;;;;;;24.07;5.27;;;;;;;;;;5039212;28;20402;-66
2022/03/02 02:44:54;;;;;;;51.63;8.17;;;;;;;;;;5036392;28;20202;-66
2022/03/02 02:47:20;;;;;;;38.43;6.43;;;;;;;;;;5036778;28;20239;-66
2022/03/02 02:49:46;;;;;;;57.50;9.57;;;;;;;;;;5015616;28;20191;-67
2022/03/02 02:52:12;;;;;;;48.63;8.57;;;;;;;;;;5037430;28;20188;-66
2022/03/02 02:54:38;;;;;;;43.10;7.53;;;;;;;;;;5037034;28;20806;-66
2022/03/02 02:57:04;;;;;;;39.00;7.03;;;;;;;;;;5036171;28;20753;-67
2022/03/02 02:59:31;;;;;;;40.37;7.17;;;;;;;;;;5033345;28;20633;-67
2022/03/02 03:01:57;;;;;;;59.87;9.80;;;;;;;;;;5036697;28;21087;-66
2022/03/02 03:04:23;;;;;;;40.57;7.57;;;;;;;;;;5034091;28;20215;-67
2022/03/02 03:06:49;;;;;;;57.90;9.17;;;;;;;;;;5035020;28;20242;-66
2022/03/02 03:09:16;;;;;;;45.07;7.87;;;;;;;;;;5037784;28;20187;-66
2022/03/02 03:11:42;;;;;;;70.07;10.97;;;;;;;;;;5036624;28;20533;-66
2022/03/02 03:14:12;;;;;;;33.17;6.67;;;;;;;;;;5037233;28;20187;-66
2022/03/02 03:16:39;;;;;;;71.27;11.10;;;;;;;;;;5035532;28;20242;-66
2022/03/02 03:19:05;;;;;;;48.43;8.43;;;;;;;;;;5037633;28;20189;-66
2022/03/02 03:21:31;;;;;;;80.97;12.27;;;;;;;;;;5036373;28;20560;-66
2022/03/02 03:23:57;;;;;;;40.40;7.43;;;;;;;;;;5040464;28;20235;-66
2022/03/02 03:26:23;;;;;;;46.60;8.10;;;;;;;;;;5033956;28;20325;-66
2022/03/02 03:28:49;;;;;;;34.87;6.60;;;;;;;;;;5037084;28;20656;-66
2022/03/02 03:31:15;;;;;;;20.83;5.17;;;;;;;;;;5042046;28;20191;-66
2022/03/02 03:33:41;;;;;;;33.73;6.03;;;;;;;;;;5040707;28;20529;-66
2022/03/02 03:36:07;;;;;;;61.03;9.50;;;;;;;;;;5031206;28;20229;-66
2022/03/02 03:38:34;;;;;;;11.90;4.17;;;;;;;;;;5038634;28;20242;-66
2022/03/02 03:41:00;;;;;;;41.47;7.63;;;;;;;;;;5034451;28;20183;-67
2022/03/02 03:43:26;;;;;;;48.40;8.47;;;;;;;;;;5036633;28;20214;-66
2022/03/02 03:45:52;;;;;;;36.30;6.73;;;;;;;;;;5038779;28;20200;-66
2022/03/02 03:48:18;;;;;;;45.37;8.03;;;;;;;;;;5037585;28;20280;-66
2022/03/02 03:50:44;;;;;;;36.83;6.97;;;;;;;;;;5035784;28;20191;-67
2022/03/02 03:53:10;;;;;;;46.90;8.00;;;;;;;;;;5035453;28;20179;-66
2022/03/02 03:55:38;;;;;;;40.47;7.40;;;;;;;;;;5035561;28;20357;-67
2022/03/02 03:58:04;;;;;;;26.67;5.23;;;;;;;;;;5036471;28;20495;-66
2022/03/02 04:00:30;;;;;;;38.17;6.43;;;;;;;;;;5035922;28;20198;-66
2022/03/02 04:02:56;;;;;;;59.47;9.13;;;;;;;;;;5036265;28;20218;-66
2022/03/02 04:05:22;;;;;;;39.90;7.27;;;;;;;;;;5035290;28;20191;-66
2022/03/02 04:07:48;;;;;;;58.10;8.73;;;;;;;;;;5058344;22;20403;-55
2022/03/02 04:10:15;;;;;;;60.77;9.73;;;;;;;;;;5030085;28;20176;-55
2022/03/02 04:12:40;;;;;;;47.93;7.70;;;;;;;;;;5031685;28;20176;-55
2022/03/02 04:15:07;;;;;;;49.87;8.13;;;;;;;;;;5036000;28;20756;-55
2022/03/02 04:17:33;;;;;;;30.43;4.93;;;;;;;;;;5036515;28;20179;-55
2022/03/02 04:19:59;;;;;;;55.23;8.70;;;;;;;;;;5035022;28;20549;-55
2022/03/02 04:22:25;;;;;;;59.13;9.43;;;;;;;;;;5034726;28;20189;-55
2022/03/02 04:24:51;;;;;;;85.17;13.70;;;;;;;;;;5031342;28;20552;-55
2022/03/02 04:27:18;;;;;;;46.57;7.63;;;;;;;;;;5029835;28;20258;-55
2022/03/02 04:29:44;;;;;;;51.83;8.20;;;;;;;;;;5036218;28;20183;-55
2022/03/02 04:32:10;;;;;;;56.43;8.60;;;;;;;;;;5040198;28;20719;-56
2022/03/02 04:34:36;;;;;;;86.70;13.73;;;;;;;;;;5011753;28;20313;-55
2022/03/02 04:37:03;;;;;;;37.03;6.30;;;;;;;;;;5034587;28;20187;-55
2022/03/02 04:39:29;;;;;;;36.60;5.97;;;;;;;;;;5031403;28;20191;-55
2022/03/02 04:41:54;;;;;;;62.70;10.00;;;;;;;;;;5029420;28;20195;-55
2022/03/02 04:44:20;;;;;;;49.40;7.23;;;;;;;;;;5012973;28;20310;-55
2022/03/02 04:46:50;;;;;;;59.80;9.60;;;;;;;;;;5036930;28;20274;-55
2022/03/02 04:49:18;;;;;;;88.70;14.17;;;;;;;;;;5031448;28;20201;-55
2022/03/02 04:51:44;;;;;;;52.27;8.03;;;;;;;;;;5032530;28;20655;-55
2022/03/02 04:55:05;;;;;;;55.60;8.70;;;;;;;;;;5033609;28;20552;-55
2022/03/02 04:56:56;;;;;;;87.73;13.30;;;;;;;;;;5034317;28;20192;-55
2022/03/02 04:59:22;;;;;;;60.77;9.67;;;;;;;;;;5033703;28;20544;-55
2022/03/02 05:01:48;;;;;;;44.70;7.20;;;;;;;;;;5035532;28;20180;-55
2022/03/02 05:04:14;;;;;;;58.57;9.10;;;;;;;;;;5034481;28;20218;-55
2022/03/02 05:06:40;;;;;;;41.30;6.43;;;;;;;;;;5033842;28;20278;-55
2022/03/02 05:09:06;;;;;;;42.90;7.03;;;;;;;;;;5033713;28;20187;-55
2022/03/02 05:11:32;;;;;;;64.07;10.30;;;;;;;;;;5029284;28;20187;-55
2022/03/02 05:13:58;;;;;;;54.60;8.47;;;;;;;;;;5030974;28;20187;-55
2022/03/02 05:16:24;;;;;;;57.90;9.13;;;;;;;;;;5035688;28;20194;-55
2022/03/02 05:18:50;;;;;;;56.10;9.40;;;;;;;;;;5035750;28;20233;-55
2022/03/02 05:21:16;;;;;;;51.83;8.60;;;;;;;;;;5029326;28;20187;-55
2022/03/02 05:23:42;;;;;;;43.00;6.87;;;;;;;;;;5035202;28;20210;-55
2022/03/02 05:26:08;;;;;;;105.80;16.40;;;;;;;;;;5029629;28;20223;-55
2022/03/02 05:28:34;;;;;;;46.13;7.37;;;;;;;;;;5032642;28;20191;-56
2022/03/02 05:31:00;;;;;;;65.93;10.37;;;;;;;;;;5034431;28;20282;-55
2022/03/02 05:33:27;;;;;;;60.50;10.10;;;;;;;;;;5029795;28;20274;-55
2022/03/02 05:35:53;;;;;;;53.67;8.83;;;;;;;;;;5027127;28;20273;-55
2022/03/02 05:38:18;;;;;;;40.53;6.93;;;;;;;;;;5028814;28;20915;-55
2022/03/02 05:40:44;;;;;;;51.23;8.37;;;;;;;;;;5036998;28;20203;-55
2022/03/02 05:43:10;;;;;;;71.50;11.20;;;;;;;;;;5026770;28;20203;-55
2022/03/02 05:45:36;;;;;;;53.77;8.30;;;;;;;;;;5037552;28;20206;-56
2022/03/02 05:48:02;;;;;;;34.33;5.53;;;;;;;;;;5033317;28;20258;-57
2022/03/02 05:50:28;;;;;;;36.00;5.97;;;;;;;;;;5037693;28;20314;-58
2022/03/02 05:52:54;;;;;;;74.87;11.87;;;;;;;;;;5039046;28;20229;-58
2022/03/02 05:55:20;;;;;;;34.17;5.43;;;;;;;;;;5037135;28;20667;-58
2022/03/02 05:57:46;;;;;;;43.93;6.63;;;;;;;;;;5036765;28;20204;-58
2022/03/02 06:00:13;;;;;;;58.93;9.27;;;;;;;;;;5039554;28;20219;-58
2022/03/02 06:02:39;;;;;;;38.17;5.70;;;;;;;;;;5040705;28;20257;-58
2022/03/02 06:05:08;;;;;;;61.63;9.87;;;;;;;;;;5039550;28;20207;-58
2022/03/02 06:07:34;;;;;;;57.93;9.50;;;;;;;;;;5030599;28;20653;-57
2022/03/02 06:10:01;;;;;;;75.67;11.67;;;;;;;;;;5030947;28;20184;-57
2022/03/02 06:12:27;;;;;;;58.17;9.87;;;;;;;;;;5028313;28;20191;-57
2022/03/02 06:14:53;;;;;;;52.67;8.53;;;;;;;;;;5033616;28;20288;-58
2022/03/02 06:17:19;;;;;;;67.50;10.97;;;;;;;;;;5024539;28;20188;-57
2022/03/02 06:19:45;;;;;;;46.13;7.00;;;;;;;;;;5036339;28;20370;-58
2022/03/02 06:22:11;;;;;;;96.97;15.10;;;;;;;;;;5029790;28;20176;-58
2022/03/02 06:24:37;;;;;;;58.57;9.27;;;;;;;;;;5028161;28;20208;-58
2022/03/02 06:27:03;;;;;;;67.90;10.83;;;;;;;;;;5024150;28;20950;-58
2022/03/02 06:29:29;;;;;;;85.90;12.93;;;;;;;;;;5032386;28;20775;-58
2022/03/02 06:31:55;;;;;;;49.30;7.67;;;;;;;;;;5032550;28;20181;-58
2022/03/02 06:34:21;;;;;;;66.40;10.57;;;;;;;;;;5031028;28;20200;-58
2022/03/02 06:36:50;;;;;;;60.13;9.30;;;;;;;;;;5024973;28;20180;-58
2022/03/02 06:39:20;;;;;;;59.37;9.97;;;;;;;;;;5030699;28;20463;-58
2022/03/02 06:41:52;;;;;;;43.23;7.10;;;;;;;;;;5033945;28;20899;-58
2022/03/02 06:44:18;;;;;;;54.20;8.97;;;;;;;;;;5041422;28;20606;-58
2022/03/02 06:46:50;;;;;;;37.53;6.47;;;;;;;;;;5042261;28;20180;-58
2022/03/02 06:49:27;;;;;;;57.10;9.00;;;;;;;;;;5042967;28;20812;-58
2022/03/02 06:51:57;;;;;;;46.67;7.17;;;;;;;;;;5041974;28;20172;-58
2022/03/02 06:54:26;;;;;;;43.53;6.90;;;;;;;;;;5039254;28;20281;-58
2022/03/02 06:56:53;;;;;;;80.60;12.67;;;;;;;;;;5029367;28;20195;-58
2022/03/02 06:59:25;;;;;;;44.13;7.20;;;;;;;;;;5032640;28;20182;-58
2022/03/02 07:01:52;;;;;;;64.23;9.67;;;;;;;;;;5034283;28;20309;-58
2022/03/02 07:04:19;;;;;;;77.27;12.10;;;;;;;;;;5027448;28;20682;-57
2022/03/02 07:06:46;;;;;;;69.20;10.93;;;;;;;;;;5030406;28;20192;-58
2022/03/02 07:09:12;;;;;;;53.77;8.57;;;;;;;;;;5028724;28;20515;-60
2022/03/02 07:11:39;;;;;;;70.83;11.17;;;;;;;;;;5024959;28;20710;-59
2022/03/02 07:14:08;;;;;;;59.17;8.93;;;;;;;;;;5027509;28;20192;-58
2022/03/02 07:16:34;;;;;;;64.50;9.93;;;;;;;;;;5022777;28;20195;-58
2022/03/02 07:19:00;;;;;;;113.90;17.07;;;;;;;;;;5030891;28;20270;-58
2022/03/02 07:21:28;;;;;;;81.83;12.37;;;;;;;;;;5025631;28;20639;-56
2022/03/02 07:23:56;;;;;;;101.07;14.87;;;;;;;;;;5029864;28;20243;-56
2022/03/02 07:26:23;;;;;;;101.73;15.20;;;;;;;;;;5030171;28;20199;-56
2022/03/02 07:28:49;;;;;;;40.40;6.13;;;;;;;;;;5035716;28;20254;-56
2022/03/02 07:31:15;;;;;;;57.70;8.93;;;;;;;;;;5034932;28;20191;-56
2022/03/02 07:33:42;;;;;;;54.67;8.67;;;;;;;;;;5038849;28;21232;-54
2022/03/02 07:36:11;;;;;;;69.80;10.37;;;;;;;;;;5036066;28;20370;-54
2022/03/02 07:38:37;;;;;;;32.80;5.53;;;;;;;;;;5038824;28;20698;-57
2022/03/02 07:41:07;;;;;;;170.63;26.47;;;;;;;;;;5008496;28;20234;-58
2022/03/02 07:43:36;;;;;;;82.67;13.27;;;;;;;;;;5022016;28;20265;-59
2022/03/02 07:46:02;;;;;;;67.53;10.63;;;;;;;;;;5026741;28;20269;-58
2022/03/02 07:48:28;;;;;;;89.70;13.70;;;;;;;;;;5031633;28;20663;-59
2022/03/02 07:50:55;;;;;;;98.63;14.90;;;;;;;;;;5022811;28;21223;-59
2022/03/02 07:53:23;;;;;;;53.87;8.43;;;;;;;;;;5043079;28;20195;-59
2022/03/02 07:55:52;;;;;;;46.97;6.60;;;;;;;;;;5042476;28;20210;-52
2022/03/02 07:58:19;;;;;;;69.77;10.17;;;;;;;;;;5039619;28;20650;-59
2022/03/02 08:00:48;;;;;;;66.23;9.40;;;;;;;;;;5042757;28;20252;-59
2022/03/02 08:03:14;;;;;;;78.53;12.87;;;;;;;;;;5035601;28;20203;-59
2022/03/02 08:05:43;;;;;;;110.70;17.10;;;;;;;;;;5037979;28;21760;-59
2022/03/02 08:08:10;;;;;;;82.13;12.10;;;;;;;;;;5037315;28;20244;-58
2022/03/02 08:10:36;;;;;;;67.47;10.17;;;;;;;;;;5041037;28;20199;-59
2022/03/02 08:13:02;;;;;;;50.03;6.97;;;;;;;;;;5041912;28;20187;-59
2022/03/02 08:15:29;;;;;;;45.00;7.00;;;;;;;;;;5039901;28;20207;-59
2022/03/02 08:17:55;;;;;;;53.20;8.30;;;;;;;;;;5039784;28;20473;-59
2022/03/02 08:20:21;;;;;;;;;;;;;;;;;;5029318;28;20548;-58
2022/03/02 08:22:51;;;;;;;52.85;8.10;;;;;;;;;;5044970;28;20192;-58
2022/03/02 08:25:18;;;;;;;76.00;11.80;;;;;;;;;;5025334;28;20221;-58
2022/03/02 08:27:44;;;;;;;70.43;10.83;;;;;;;;;;5026776;28;20690;-58
2022/03/02 08:30:11;;;;;;;118.67;17.80;;;;;;;;;;5029026;28;20254;-59
2022/03/02 08:32:44;;;;;;;61.10;9.47;;;;;;;;;;5023288;28;20188;-59
2022/03/02 08:35:11;;;;;;;145.53;21.70;;;;;;;;;;5022215;28;20366;-59
2022/03/02 08:37:37;;;;;;;79.20;11.33;;;;;;;;;;5038899;28;20221;-59
2022/03/02 08:40:04;;;;;;;70.03;10.43;;;;;;;;;;5034351;28;20187;-58
2022/03/02 08:42:30;;;;;;;54.77;8.73;;;;;;;;;;5024555;28;20563;-59
2022/03/02 08:44:56;;;;;;;97.13;14.40;;;;;;;;;;5031526;28;20200;-59
2022/03/02 08:47:25;;;;;;;98.87;14.57;;;;;;;;;;5032998;28;21584;-58
2022/03/02 08:49:51;;;;;;;45.17;6.77;;;;;;;;;;5041075;28;20259;-58
2022/03/02 08:52:36;;;;;;;52.60;7.97;;;;;;;;;;5042400;28;20176;-58
2022/03/02 08:55:04;;;;;;;91.33;13.77;;;;;;;;;;5032302;28;21126;-59
2022/03/02 08:57:31;;;;;;;56.80;8.37;;;;;;;;;;5033419;28;20525;-59
2022/03/02 08:59:59;;;;;;;44.30;6.93;;;;;;;;;;5034103;28;20219;-59
2022/03/02 09:02:29;;;;;;;153.77;23.27;;;;;;;;;;5029935;28;20184;-59
2022/03/02 09:04:58;;;;;;;80.43;11.83;;;;;;;;;;5027133;28;20218;-59
2022/03/02 09:07:24;;;;;;;81.80;13.17;;;;;;;;;;5029611;28;20282;-59
2022/03/02 09:09:50;;;;;;;80.17;12.13;;;;;;;;;;5024329;28;20277;-59
2022/03/02 09:12:17;;;;;;;45.30;7.00;;;;;;;;;;5028694;28;20188;-58
2022/03/02 09:14:43;;;;;;;115.83;17.93;;;;;;;;;;5031226;28;20207;-59
2022/03/02 09:17:09;;;;;;;68.07;10.77;;;;;;;;;;5014902;28;20834;-59
2022/03/02 09:19:35;;;;;;;45.23;6.87;;;;;;;;;;5037483;28;20243;-58
2022/03/02 09:22:02;;;;;;;60.67;9.10;;;;;;;;;;5037027;28;20594;-59
2022/03/02 09:24:29;;;;;;;49.17;7.53;;;;;;;;;;5033309;28;20219;-58
2022/03/02 09:26:57;;;;;;;85.53;13.30;;;;;;;;;;5021703;28;20608;-59
2022/03/02 09:29:26;;;;;;;71.07;11.20;;;;;;;;;;5021764;28;20221;-59
2022/03/02 09:31:52;;;;;;;86.50;13.70;;;;;;;;;;5020095;28;20529;-58
2022/03/02 09:34:19;;;;;;;49.53;7.53;;;;;;;;;;5037591;28;20203;-59
2022/03/02 09:36:47;;;;;;;71.37;11.30;;;;;;;;;;5034163;28;20219;-59
2022/03/02 09:39:13;;;;;;;35.77;5.33;;;;;;;;;;5032603;28;20745;-58
2022/03/02 09:41:42;;;;;;;79.27;12.17;;;;;;;;;;5030976;28;20452;-59
2022/03/02 09:44:11;;;;;;;65.70;9.93;;;;;;;;;;5032982;28;20215;-58
2022/03/02 09:46:38;;;;;;;55.20;8.47;;;;;;;;;;5040069;28;20297;-59
2022/03/02 09:49:09;;;;;;;58.40;9.00;;;;;;;;;;5033715;28;20184;-59
2022/03/02 09:51:35;;;;;;;59.07;8.60;;;;;;;;;;5038029;28;20191;-59
2022/03/02 09:54:03;;;;;;;60.70;9.10;;;;;;;;;;5040265;28;20187;-59
2022/03/02 09:56:31;;;;;;;127.50;19.00;;;;;;;;;;5034258;28;20246;-59
2022/03/02 09:58:58;;;;;;;59.53;9.33;;;;;;;;;;5038335;28;20800;-59
2022/03/02 10:01:25;;;;;;;73.17;11.17;;;;;;;;;;5040741;28;20175;-59
2022/03/02 10:03:52;;;;;;;57.17;8.50;;;;;;;;;;5034220;28;20544;-59
2022/03/02 10:08:53;;;;;;;57.17;10.97;;;;;;;;;;5033697;28;20714;-57
2022/03/02 10:11:20;;;;;;;68.23;13.03;;;;;;;;;;5017516;28;20183;-59
2022/03/02 10:13:46;;;;;;;86.07;14.90;;;;;;;;;;5028599;28;20195;-57
2022/03/02 10:16:16;;;;;;;58.40;11.03;;;;;;;;;;5009711;28;20196;-56
2022/03/02 10:18:43;;;;;;;66.13;11.77;;;;;;;;;;5006449;28;20524;-57
2022/03/02 10:21:09;;;;;;;85.87;14.77;;;;;;;;;;5010094;28;20735;-56
2022/03/02 10:23:36;;;;;;;63.03;11.60;;;;;;;;;;5006895;28;20204;-59
2022/03/02 10:26:09;;;;;;;46.20;9.33;;;;;;;;;;5010101;28;20208;-58
2022/03/02 10:28:47;;;;;;;44.67;9.10;;;;;;;;;;5003759;28;20851;-56
2022/03/02 10:31:32;;;;;;;99.07;17.20;;;;;;;;;;5011756;28;20188;-58
2022/03/02 10:34:28;;;;;;;98.17;17.57;;;;;;;;;;5001415;28;20220;-56
2022/03/02 10:37:05;;;;;;;130.33;22.80;;;;;;;;;;5001506;28;20208;-56
2022/03/02 10:39:38;;;;;;;71.27;12.83;;;;;;;;;;5000802;28;20766;-55
2022/03/02 10:42:05;;;;;;;119.23;19.00;;;;;;;;;;4994978;28;20279;-56
2022/03/02 10:44:48;;;;;;;66.57;11.40;;;;;;;;;;5003512;28;20236;-56
2022/03/02 10:47:17;;;;;;;67.10;11.73;;;;;;;;;;5002296;28;20299;-56
2022/03/02 10:49:44;;;;;;;101.07;16.97;;;;;;;;;;5010607;28;20184;-56
2022/03/02 10:52:14;;;;;;;112.57;17.90;;;;;;;;;;5007910;28;20267;-57
2022/03/02 10:54:40;;;;;;;93.50;15.23;;;;;;;;;;5007698;28;20200;-57
2022/03/02 10:57:11;;;;;;;65.37;11.43;;;;;;;;;;5007178;28;20216;-56
2022/03/02 10:59:38;;;;;;;70.83;13.00;;;;;;;;;;5013027;28;20197;-57
2022/03/02 11:02:04;;;;;;;63.40;11.73;;;;;;;;;;5008452;28;20852;-56
2022/03/02 11:04:30;;;;;;;58.57;11.50;;;;;;;;;;5011153;28;20792;-56
2022/03/02 11:06:56;;;;;;;101.87;17.13;;;;;;;;;;5005465;28;20200;-57
2022/03/02 11:09:25;;;;;;;62.43;11.73;;;;;;;;;;5000826;28;21338;-61
2022/03/02 11:11:53;;;;;;;166.30;27.53;;;;;;;;;;4992607;28;20180;-60
2022/03/02 11:14:20;;;;;;;69.53;11.80;;;;;;;;;;5002679;28;20216;-57
2022/03/02 11:16:47;;;;;;;92.10;15.77;;;;;;;;;;4999201;28;20287;-57
2022/03/02 11:19:15;;;;;;;79.13;13.73;;;;;;;;;;5007512;28;20261;-58
2022/03/02 11:21:42;;;;;;;130.80;21.87;;;;;;;;;;5006154;28;20177;-58
2022/03/02 11:24:09;;;;;;;130.87;21.50;;;;;;;;;;4984577;28;20622;-58
2022/03/02 11:26:39;;;;;;;140.83;22.60;;;;;;;;;;4992846;28;20180;-58
2022/03/02 11:29:13;;;;;;;85.43;14.97;;;;;;;;;;4994475;28;22790;-59
2022/03/02 11:31:40;;;;;;;86.13;15.03;;;;;;;;;;5006431;28;20755;-61
2022/03/02 11:34:17;;;;;;;159.90;25.53;;;;;;;;;;5003497;28;20255;-59
2022/03/02 11:36:45;;;;;;;89.10;14.87;;;;;;;;;;4994960;28;20216;-61
2022/03/02 11:39:11;;;;;;;70.83;12.67;;;;;;;;;;4989893;28;20199;-57
2022/03/02 11:41:40;;;;;;;144.43;24.07;;;;;;;;;;4994779;28;20188;-61
2022/03/02 11:44:26;;;;;;;48.47;9.27;;;;;;;;;;5014184;28;20220;-56
2022/03/02 11:46:52;;;;;;;46.00;8.90;;;;;;;;;;5007690;28;20187;-58
2022/03/02 11:49:18;;;;;;;98.27;16.87;;;;;;;;;;5014273;28;20192;-60
2022/03/02 11:51:44;;;;;;;65.43;12.03;;;;;;;;;;5011215;28;20565;-57
2022/03/02 11:54:10;;;;;;;50.70;9.77;;;;;;;;;;5016513;28;20594;-58
2022/03/02 11:56:36;;;;;;;73.07;12.73;;;;;;;;;;5009176;28;20211;-59
2022/03/02 11:59:10;;;;;;;67.43;11.97;;;;;;;;;;5009865;28;20272;-60
2022/03/02 12:01:56;;;;;;;131.67;22.10;;;;;;;;;;5005465;28;20457;-60
2022/03/02 12:04:22;;;;;;;75.90;12.63;;;;;;;;;;5010363;28;20335;-57
2022/03/02 12:06:50;;;;;;;60.50;10.50;;;;;;;;;;5010096;28;20586;-59
2022/03/02 12:09:27;;;;;;;82.80;14.43;;;;;;;;;;5008560;28;20210;-57
2022/03/02 12:12:05;;;;;;;132.67;23.03;;;;;;;;;;4998462;28;20275;-63
2022/03/02 12:14:38;;;;;;;75.87;13.73;;;;;;;;;;5002579;28;20268;-57
2022/03/02 12:17:12;;;;;;;68.77;12.70;;;;;;;;;;5002230;28;20188;-59
2022/03/02 12:19:38;;;;;;;72.70;12.90;;;;;;;;;;5007799;28;20278;-60
2022/03/02 12:22:06;;;;;;;95.63;17.60;;;;;;;;;;5009353;28;20372;-59
2022/03/02 12:24:33;;;;;;;69.13;12.37;;;;;;;;;;4999165;28;20230;-61
2022/03/02 12:27:05;;;;;;;128.53;22.40;;;;;;;;;;4991201;28;20505;-61
2022/03/02 12:29:32;;;;;;;85.00;15.27;;;;;;;;;;5000202;28;20241;-58
2022/03/02 12:32:05;;;;;;;91.27;15.63;;;;;;;;;;4994984;28;20180;-57
2022/03/02 12:34:34;;;;;;;75.37;13.60;;;;;;;;;;5001638;28;20215;-61
2022/03/02 12:37:00;;;;;;;75.93;12.97;;;;;;;;;;5004400;28;20190;-58
2022/03/02 12:39:26;;;;;;;71.80;11.93;;;;;;;;;;5005781;28;20194;-57
2022/03/02 12:41:52;;;;;;;78.23;13.97;;;;;;;;;;4993668;28;20193;-61
2022/03/02 12:44:18;;;;;;;46.53;8.40;;;;;;;;;;5003618;28;20219;-61
2022/03/02 12:46:45;;;;;;;88.20;14.83;;;;;;;;;;5004282;28;20222;-63
2022/03/02 12:49:11;;;;;;;93.37;16.13;;;;;;;;;;5002409;28;20303;-61
2022/03/02 12:51:37;;;;;;;72.37;12.13;;;;;;;;;;4997469;28;20192;-56
2022/03/02 12:54:03;;;;;;;81.33;14.77;;;;;;;;;;5002840;28;20246;-61
2022/03/02 12:56:29;;;;;;;92.17;15.60;;;;;;;;;;4999914;28;20223;-62
2022/03/02 12:58:56;;;;;;;89.33;15.00;;;;;;;;;;5007490;28;20727;-59
2022/03/02 13:01:22;;;;;;;72.30;12.83;;;;;;;;;;5000415;28;21251;-56
2022/03/02 13:03:51;;;;;;;120.47;20.13;;;;;;;;;;5001321;28;20208;-63
2022/03/02 13:06:20;;;;;;;72.90;12.77;;;;;;;;;;4992231;28;20189;-60
2022/03/02 13:09:06;;;;;;;86.43;14.77;;;;;;;;;;4999787;28;20200;-63
2022/03/02 13:11:32;;;;;;;75.20;12.93;;;;;;;;;;5007215;28;20303;-60
2022/03/02 13:13:58;;;;;;;80.70;13.23;;;;;;;;;;5014081;28;20756;-56
2022/03/02 13:16:28;;;;;;;63.60;11.17;;;;;;;;;;5008834;28;20219;-57
2022/03/02 13:18:56;;;;;;;93.33;16.37;;;;;;;;;;5006014;28;20219;-61
2022/03/02 13:21:23;;;;;;;100.70;17.37;;;;;;;;;;5003145;28;20633;-61
2022/03/02 13:24:10;;;;;;;96.47;16.37;;;;;;;;;;5008487;28;20222;-57
2022/03/02 13:26:36;;;;;;;97.30;17.30;;;;;;;;;;4998886;28;21439;-60
2022/03/02 13:29:07;;;;;;;82.40;14.67;;;;;;;;;;5007432;28;20187;-56
2022/03/02 13:32:12;;;;;;;88.77;15.97;;;;;;;;;;5011930;28;20196;-59
2022/03/02 13:34:38;;;;;;;98.67;17.70;;;;;;;;;;4906424;29;20239;-59
2022/03/02 13:37:06;;;;;;;75.35;13.63;;;;;;;;;;4912021;29;20298;-60
2022/03/02 13:39:41;;;;;;;68.78;12.27;;;;;;;;;;4963251;28;20633;-59
2022/03/02 13:42:14;;;;;;;168.35;30.92;;;;;;;;;;4997797;28;23730;-58
2022/03/02 13:44:41;;;;;;;110.50;20.08;;;;;;;;;;4995747;28;20509;-56
2022/03/02 13:47:07;;;;;;;95.60;17.92;;;;;;;;;;5001298;28;20180;-60
2022/03/02 13:49:57;;;;;;;129.73;24.45;;;;;;;;;;5001531;28;20185;-64
2022/03/02 13:52:29;;;;;;;105.32;20.08;;;;;;;;;;4982413;28;20184;-58
2022/03/02 13:54:59;;;;;;;88.65;17.00;;;;;;;;;;4995890;28;20669;-58
2022/03/02 13:57:27;;;;;;;96.03;19.58;;;;;;;;;;4995689;28;20234;-62
2022/03/02 14:00:11;;;;;;;131.02;26.65;;;;;;;;;;5004318;28;21638;-60
2022/03/02 14:02:37;;;;;;;66.15;15.60;;;;;;;;;;5007029;28;20548;-57
2022/03/02 14:05:04;;;;;;;99.05;22.95;;;;;;;;;;5003147;28;20218;-61
2022/03/02 14:07:31;;;;;;;80.50;19.27;;;;;;;;;;5000380;28;20554;-57
2022/03/02 14:10:00;;;;;;;112.90;25.42;;;;;;;;;;5003857;28;20180;-56
2022/03/02 14:12:26;;;;;;;152.07;36.28;;;;;;;;;;4994185;28;20283;-58
2022/03/02 14:14:52;;;;;;;101.68;23.83;;;;;;;;;;4996529;28;21050;-61
2022/03/02 14:17:18;;;;;;;112.45;25.85;;;;;;;;;;5000542;28;20212;-62
2022/03/02 14:19:46;;;;;;;98.65;22.60;;;;;;;;;;5003644;28;20632;-59
2022/03/02 14:22:16;;;;;;;131.77;29.13;;;;;;;;;;5015144;28;20196;-62
2022/03/02 14:24:44;;;;;;;110.22;24.20;;;;;;;;;;4995544;28;20216;-60
2022/03/02 14:27:17;;;;;;;106.28;23.92;;;;;;;;;;4991274;28;20210;-61
2022/03/02 14:30:04;;;;;;;93.53;21.73;;;;;;;;;;4993876;28;20188;-60